Time;durP1;ratioP1;P1;durP2;ratioP2;P2;SDS_P1;SDS_P2;PMS_P1;PMS_P2;Temp;Humidity;BMP_temperature;BMP_pressure;BME280_temperature;BME280_humidity;BME280_pressure;Samples;Min_cycle;Max_cycle;Signal;HPM_P1;HPM_P2
2023/04/05 00:02:17;;;;;;;0.50;0.50;;;;;;;6.94;66.54;96179.88;5067569;28;20222;-83
2023/04/05 00:04:50;;;;;;;1.07;0.60;;;;;;;6.91;65.50;96186.88;5067873;28;20782;-88
2023/04/05 00:07:20;;;;;;;1.77;1.10;;;;;;;6.96;65.63;96185.78;5069007;28;20210;-88
2023/04/05 00:09:48;;;;;;;0.93;0.80;;;;;;;6.88;66.16;96179.31;5068035;28;20253;-84
2023/04/05 00:12:15;;;;;;;0.73;0.70;;;;;;;6.85;64.88;96171.72;5092230;28;20194;-80
2023/04/05 00:14:42;;;;;;;0.50;0.50;;;;;;;6.82;66.01;96166.72;5092992;28;20224;-89
2023/04/05 00:17:09;;;;;;;0.70;0.60;;;;;;;6.88;65.79;96177.59;5094506;28;20218;-78
2023/04/05 00:19:38;;;;;;;0.70;0.70;;;;;;;6.91;65.63;96168.88;5069799;28;20779;-83
2023/04/05 00:22:09;;;;;;;0.70;0.70;;;;;;;6.77;66.31;96171.22;5087726;28;20258;-87
2023/04/05 00:24:37;;;;;;;0.70;0.70;;;;;;;6.67;66.83;96182.84;5089773;28;20198;-87
2023/04/05 00:27:04;;;;;;;0.60;0.50;;;;;;;6.49;67.32;96190.44;5092049;28;20277;-85
2023/04/05 00:29:31;;;;;;;0.70;0.70;;;;;;;6.49;65.68;96190.44;5090147;28;20658;-86
2023/04/05 00:31:58;;;;;;;0.70;0.70;;;;;;;6.49;66.48;96181.94;5087599;28;20268;-77
2023/04/05 00:34:26;;;;;;;0.70;0.70;;;;;;;6.35;67.11;96168.81;5087771;28;20567;-75
2023/04/05 00:36:53;;;;;;;0.60;0.60;;;;;;;6.36;67.26;96175.63;5087128;28;20284;-80
2023/04/05 00:39:20;;;;;;;0.70;0.70;;;;;;;6.27;68.09;96161.44;5069157;28;20273;-77
2023/04/05 00:41:47;;;;;;;0.60;0.60;;;;;;;6.24;67.71;96171.88;5087323;28;20236;-76
2023/04/05 00:44:14;;;;;;;0.70;0.70;;;;;;;6.37;67.33;96185.84;5069077;28;20190;-82
2023/04/05 00:46:42;;;;;;;0.80;0.80;;;;;;;6.36;66.97;96185.91;5087514;28;20246;-85
2023/04/05 00:49:10;;;;;;;0.60;0.60;;;;;;;6.52;66.23;96194.63;5088683;28;20197;-79
2023/04/05 00:51:37;;;;;;;0.60;0.60;;;;;;;6.61;68.11;96183.13;5088426;28;20240;-83
2023/04/05 00:54:05;;;;;;;0.70;0.70;;;;;;;6.42;68.13;96168.50;5087770;28;20284;-82
2023/04/05 00:56:32;;;;;;;0.70;0.70;;;;;;;6.55;65.92;96186.81;5087304;28;20228;-81
2023/04/05 00:58:59;;;;;;;0.90;0.90;;;;;;;6.49;66.35;96184.50;5087149;28;20196;-81
2023/04/05 01:01:27;;;;;;;0.80;0.80;;;;;;;6.60;67.11;96197.69;5068812;28;20254;-78
2023/04/05 01:04:01;;;;;;;0.70;0.70;;;;;;;6.52;67.70;96187.75;5087123;28;20245;-78
2023/04/05 01:06:56;;;;;;;0.80;0.80;;;;;;;6.62;67.25;96200.19;5086951;28;20203;-86
2023/04/05 01:09:30;;;;;;;1.20;0.90;;;;;;;6.57;67.75;96198.66;5069044;28;20187;-79
2023/04/05 01:12:00;;;;;;;1.77;1.10;;;;;;;6.52;66.70;96198.06;5068959;28;20194;-82
2023/04/05 01:14:27;;;;;;;1.70;1.37;;;;;;;6.36;67.23;96215.03;5086732;28;20193;-85
2023/04/05 01:16:57;;;;;;;1.50;1.20;;;;;;;6.36;67.02;96209.91;5086572;28;20642;-85
2023/04/05 01:19:28;;;;;;;0.80;0.80;;;;;;;6.34;67.13;96214.28;5051569;28;20230;-84
2023/04/05 01:22:12;;;;;;;0.90;0.80;;;;;;;6.19;66.68;96207.19;5086646;28;20236;-78
2023/04/05 01:24:49;;;;;;;1.23;1.00;;;;;;;6.19;67.15;96209.75;5067911;28;20668;-81
2023/04/05 01:27:21;;;;;;;0.83;0.83;;;;;;;6.12;67.35;96217.81;5086574;28;20189;-86
2023/04/05 01:30:08;;;;;;;1.10;1.00;;;;;;;6.19;68.17;96227.75;5052470;28;20211;-84
2023/04/05 01:32:45;;;;;;;2.50;1.10;;;;;;;6.22;68.57;96225.03;5087280;28;20585;-80
2023/04/05 01:35:12;;;;;;;1.97;1.20;;;;;;;6.26;67.28;96225.78;5069726;28;20238;-83
2023/04/05 01:37:40;;;;;;;1.70;1.23;;;;;;;6.20;68.95;96226.84;5067978;28;20183;-82
2023/04/05 01:40:08;;;;;;;1.50;1.20;;;;;;;6.22;67.81;96219.09;5068214;28;21074;-79
2023/04/05 01:42:35;;;;;;;1.47;1.20;;;;;;;6.23;67.14;96219.03;5086288;28;20231;-78
2023/04/05 01:45:02;;;;;;;1.30;1.20;;;;;;;6.17;68.09;96227.00;5067991;28;20193;-77
2023/04/05 01:47:31;;;;;;;1.20;1.10;;;;;;;6.07;68.99;96237.72;5086335;28;20190;-80
2023/04/05 01:49:58;;;;;;;2.43;1.87;;;;;;;5.93;71.64;96238.28;5086534;28;21034;-82
2023/04/05 01:52:25;;;;;;;2.80;1.30;;;;;;;5.95;72.52;96227.94;5086672;28;20673;-82
2023/04/05 01:54:52;;;;;;;4.37;2.33;;;;;;;5.97;72.37;96238.97;5085975;28;20195;-82
2023/04/05 01:57:19;;;;;;;1.30;1.20;;;;;;;5.28;75.12;96227.13;5086229;28;20202;-84
2023/04/05 01:59:46;;;;;;;1.00;0.90;;;;;;;5.55;74.16;96244.06;5086057;28;20281;-82
2023/04/05 02:02:13;;;;;;;1.20;1.10;;;;;;;5.61;75.08;96242.09;5085888;28;20689;-84
2023/04/05 02:04:41;;;;;;;1.70;1.60;;;;;;;5.79;73.96;96227.66;5086148;28;20405;-75
2023/04/05 02:07:08;;;;;;;1.63;1.43;;;;;;;5.90;72.82;96238.38;5068088;28;20270;-89
2023/04/05 02:09:35;;;;;;;1.33;0.60;;;;;;;6.15;70.38;96243.38;5086646;28;20674;-88
2023/04/05 02:12:02;;;;;;;1.17;0.83;;;;;;;6.29;69.51;96253.91;5067456;28;20269;-84
2023/04/05 02:14:30;;;;;;;2.00;1.40;;;;;;;6.40;70.97;96252.59;5068141;28;20199;-86
2023/04/05 02:16:57;;;;;;;1.67;1.20;;;;;;;6.41;70.70;96253.41;5086676;28;20233;-84
2023/04/05 02:19:24;;;;;;;1.67;1.30;;;;;;;6.47;70.33;96248.84;5086089;28;20182;-84
2023/04/05 02:21:55;;;;;;;1.53;1.00;;;;;;;6.44;70.35;96248.13;5067867;28;20227;-86
2023/04/05 02:24:22;;;;;;;1.40;1.20;;;;;;;6.45;70.15;96249.81;5067708;28;20198;-85
2023/04/05 02:26:50;;;;;;;2.27;0.90;;;;;;;6.47;70.13;96253.16;5068408;28;20191;-84
2023/04/05 02:29:17;;;;;;;2.33;1.20;;;;;;;6.35;68.77;96249.34;5069400;28;20186;-80
2023/04/05 02:31:44;;;;;;;2.13;1.10;;;;;;;6.26;68.24;96247.19;5086835;28;20215;-82
2023/04/05 02:34:12;;;;;;;1.67;1.57;;;;;;;6.35;68.29;96249.34;5086163;28;20678;-80
2023/04/05 02:36:40;;;;;;;1.57;1.47;;;;;;;6.44;67.42;96253.28;5087126;28;20200;-78
2023/04/05 02:39:07;;;;;;;1.97;1.20;;;;;;;6.38;67.03;96259.53;5089889;28;20191;-79
2023/04/05 02:41:37;;;;;;;1.40;1.30;;;;;;;6.33;67.72;96266.59;5071266;28;20249;-80
2023/04/05 02:44:04;;;;;;;2.67;1.63;;;;;;;6.37;68.58;96255.28;5089765;28;20186;-77
2023/04/05 02:46:31;;;;;;;2.00;1.67;;;;;;;5.95;69.25;96258.78;5070417;28;20522;-84
2023/04/05 02:48:59;;;;;;;2.73;2.30;;;;;;;5.96;69.14;96235.56;5054857;28;20225;-83
2023/04/05 02:51:28;;;;;;;4.03;1.87;;;;;;;6.22;69.65;96242.22;5071112;28;20626;-79
2023/04/05 02:54:35;;;;;;;1.53;1.40;;;;;;;6.31;69.73;96245.25;5073238;28;20195;-76
2023/04/05 02:57:22;;;;;;;3.57;1.90;;;;;;;6.44;68.60;96258.41;5092007;28;20236;-82
2023/04/05 02:59:56;;;;;;;2.27;1.73;;;;;;;6.43;67.72;96252.44;5072062;28;20182;-83
2023/04/05 03:02:26;;;;;;;2.33;1.57;;;;;;;6.24;65.89;96261.84;5071745;28;20224;-81
2023/04/05 03:04:53;;;;;;;2.17;1.70;;;;;;;5.87;68.28;96255.66;5071975;28;20619;-82
2023/04/05 03:07:24;;;;;;;3.67;1.93;;;;;;;5.95;68.51;96263.91;5071487;28;20844;-84
2023/04/05 03:09:52;;;;;;;3.33;1.50;;;;;;;6.08;68.30;96271.03;5071387;28;20190;-80
2023/04/05 03:12:20;;;;;;;2.53;1.50;;;;;;;6.07;67.45;96264.25;5070926;28;20278;-81
2023/04/05 03:14:48;;;;;;;4.90;3.10;;;;;;;6.05;68.14;96253.19;5071414;28;20198;-84
2023/04/05 03:17:19;;;;;;;2.37;1.90;;;;;;;6.20;68.23;96256.88;5070006;28;20860;-81
2023/04/05 03:19:56;;;;;;;1.57;1.30;;;;;;;6.26;67.04;96259.19;5071923;28;20282;-77
2023/04/05 03:22:26;;;;;;;1.80;1.50;;;;;;;6.18;66.98;96258.69;5077646;28;20245;-78
2023/04/05 03:24:55;;;;;;;0.97;0.97;;;;;;;5.77;66.78;96224.31;5084968;28;20254;-83
2023/04/05 03:27:22;;;;;;;0.70;0.70;;;;;;;5.76;67.86;96267.19;5078800;28;20196;-84
2023/04/05 03:30:15;;;;;;;1.20;0.93;;;;;;;5.79;67.96;96269.63;5083834;28;20213;-81
2023/04/05 03:32:49;;;;;;;0.90;0.90;;;;;;;5.94;68.12;96278.47;5070717;28;20189;-73
2023/04/05 03:35:35;;;;;;;3.17;1.63;;;;;;;6.07;67.49;96279.66;5070856;28;20181;-80
2023/04/05 03:38:05;;;;;;;1.53;1.40;;;;;;;6.14;67.62;96275.13;5064019;28;20289;-77
2023/04/05 03:40:34;;;;;;;2.30;1.80;;;;;;;6.23;67.28;96279.88;5052063;28;20261;-80
2023/04/05 03:43:01;;;;;;;1.97;1.70;;;;;;;6.29;67.61;96280.47;5068074;28;20216;-86
2023/04/05 03:45:29;;;;;;;2.47;2.00;;;;;;;6.24;67.19;96279.00;5083492;28;20195;-81
2023/04/05 03:47:58;;;;;;;1.80;1.67;;;;;;;6.05;67.98;96280.63;5050089;28;20266;-82
2023/04/05 03:50:26;;;;;;;3.03;1.80;;;;;;;6.07;68.01;96278.81;5055226;28;20199;-77
2023/04/05 03:52:53;;;;;;;3.47;2.27;;;;;;;6.04;68.37;96295.19;5058176;28;20207;-79
2023/04/05 03:55:21;;;;;;;2.03;1.70;;;;;;;5.89;69.18;96295.84;5075169;28;20191;-76
2023/04/05 03:57:51;;;;;;;3.53;2.03;;;;;;;5.79;69.45;96302.16;5069876;28;20209;-84
2023/04/05 04:00:36;;;;;;;2.10;1.90;;;;;;;5.73;70.44;96304.97;5070017;28;20378;-77
2023/04/05 04:03:15;;;;;;;5.20;1.90;;;;;;;5.89;70.22;96306.09;5066610;28;20212;-81
2023/04/05 04:05:45;;;;;;;1.80;1.70;;;;;;;5.89;69.40;96308.69;5069611;28;20195;-82
2023/04/05 04:08:12;;;;;;;3.73;2.00;;;;;;;5.82;68.65;96296.91;5069608;28;20270;-78
2023/04/05 04:10:39;;;;;;;4.53;2.33;;;;;;;5.94;69.07;96316.19;5070082;28;20213;-75
2023/04/05 04:13:39;;;;;;;1.93;1.30;;;;;;;5.82;68.57;96309.75;5071422;28;20194;-81
2023/04/05 04:16:26;;;;;;;2.00;1.80;;;;;;;5.94;68.27;96323.88;5055923;28;20590;-82
2023/04/05 04:19:17;;;;;;;2.23;1.73;;;;;;;5.87;68.10;96313.03;5069969;28;20277;-77
2023/04/05 04:22:08;;;;;;;2.20;2.00;;;;;;;5.85;68.83;96325.09;5069535;28;20220;-81
2023/04/05 04:24:48;;;;;;;2.37;2.17;;;;;;;5.71;68.56;96317.03;5087982;28;20190;-81
2023/04/05 04:27:37;;;;;;;3.43;2.20;;;;;;;5.87;68.73;96331.03;5088423;28;20225;-82
2023/04/05 04:30:21;;;;;;;5.90;2.40;;;;;;;6.00;68.93;96345.03;5068677;28;20274;-81
2023/04/05 04:33:07;;;;;;;3.67;2.20;;;;;;;5.77;67.90;96314.22;5086227;28;20271;-80
2023/04/05 04:35:45;;;;;;;2.40;2.20;;;;;;;5.96;68.23;96338.34;5068743;28;20661;-84
2023/04/05 04:38:28;;;;;;;3.47;1.97;;;;;;;6.04;67.67;96344.03;5084793;28;20198;-82
2023/04/05 04:41:11;;;;;;;2.00;1.70;;;;;;;6.07;67.54;96338.78;5085755;28;20183;-83
2023/04/05 04:44:13;;;;;;;2.67;2.20;;;;;;;6.13;66.72;96341.09;5052508;28;20238;-83
2023/04/05 04:47:12;;;;;;;3.13;2.30;;;;;;;6.24;66.74;96346.69;5068506;28;20752;-81
2023/04/05 04:49:59;;;;;;;3.27;2.80;;;;;;;6.30;67.39;96337.88;5087109;28;20185;-77
2023/04/05 04:52:29;;;;;;;3.27;2.20;;;;;;;6.19;66.83;96348.56;5069299;28;20286;-77
2023/04/05 04:54:56;;;;;;;2.47;2.17;;;;;;;6.15;66.68;96353.91;5086714;28;20604;-77
2023/04/05 04:57:24;;;;;;;2.20;1.80;;;;;;;5.97;66.38;96345.19;5087162;28;20658;-86
2023/04/05 04:59:52;;;;;;;2.80;1.80;;;;;;;6.10;67.00;96360.97;5068095;28;20280;-80
2023/04/05 05:02:23;;;;;;;2.43;2.00;;;;;;;6.08;66.78;96343.00;5069112;28;20185;-81
2023/04/05 05:04:50;;;;;;;2.57;2.30;;;;;;;6.29;66.27;96357.59;5086558;28;20619;-76
2023/04/05 05:07:18;;;;;;;2.70;2.27;;;;;;;6.25;65.90;96345.75;5069016;28;20245;-84
2023/04/05 05:09:45;;;;;;;2.50;2.30;;;;;;;6.26;66.91;96355.16;5087207;28;20212;-84
2023/04/05 05:12:12;;;;;;;1.43;1.33;;;;;;;6.40;64.16;96357.16;5087016;28;20278;-80
2023/04/05 05:14:39;;;;;;;2.40;1.90;;;;;;;6.09;66.04;96313.84;5086540;28;20704;-83
2023/04/05 05:17:07;;;;;;;1.50;1.40;;;;;;;6.41;65.54;96353.69;5088065;28;20203;-81
2023/04/05 05:19:34;;;;;;;2.33;1.90;;;;;;;6.51;65.05;96352.44;5087223;28;20187;-82
2023/04/05 05:22:01;;;;;;;2.93;2.37;;;;;;;6.79;65.83;96357.25;5089324;28;20218;-80
2023/04/05 05:24:28;;;;;;;2.30;2.10;;;;;;;6.85;65.11;96357.00;5088298;28;20237;-77
2023/04/05 05:26:55;;;;;;;2.20;2.00;;;;;;;7.13;63.67;96357.53;5087456;28;20199;-82
2023/04/05 05:29:22;;;;;;;3.00;2.23;;;;;;;7.38;63.96;96358.94;5086818;28;20195;-74
2023/04/05 05:31:49;;;;;;;2.03;1.83;;;;;;;7.43;62.22;96337.28;5068644;28;20599;-81
2023/04/05 05:34:18;;;;;;;1.87;1.60;;;;;;;7.38;61.69;96352.94;5051301;28;20199;-81
2023/04/05 05:36:55;;;;;;;2.60;2.40;;;;;;;7.46;62.26;96355.22;5086684;28;20604;-83
2023/04/05 05:39:22;;;;;;;1.40;1.30;;;;;;;7.06;61.55;96348.38;5086293;28;20238;-78
2023/04/05 05:41:49;;;;;;;1.33;1.20;;;;;;;7.18;61.18;96350.41;5086966;28;20196;-88
2023/04/05 05:44:16;;;;;;;3.00;1.40;;;;;;;7.17;61.38;96347.00;5071079;28;20256;-83
2023/04/05 05:46:43;;;;;;;2.43;1.87;;;;;;;7.35;62.30;96347.94;5088244;28;20190;-80
2023/04/05 05:49:10;;;;;;;2.40;2.00;;;;;;;7.55;60.87;96358.19;5077865;28;20207;-81
2023/04/05 05:51:37;;;;;;;2.57;2.37;;;;;;;7.74;61.36;96351.31;5066168;28;20189;-74
2023/04/05 05:54:04;;;;;;;4.43;2.60;;;;;;;7.92;61.09;96344.47;5047888;28;20205;-77
2023/04/05 05:56:31;;;;;;;4.33;1.80;;;;;;;8.16;60.27;96359.63;5066261;28;20585;-73
2023/04/05 05:58:58;;;;;;;11.30;3.10;;;;;;;8.24;59.78;96342.03;5066478;28;20184;-75
2023/04/05 06:01:26;;;;;;;3.90;2.40;;;;;;;8.45;58.93;96355.69;5066018;28;20185;-83
2023/04/05 06:03:54;;;;;;;4.37;2.50;;;;;;;8.68;60.15;96367.47;5066109;28;20216;-75
2023/04/05 06:06:22;;;;;;;6.10;3.13;;;;;;;8.53;58.47;96352.75;5066067;28;20189;-79
2023/04/05 06:08:50;;;;;;;8.17;4.27;;;;;;;8.80;58.47;96362.53;5066000;28;20208;-81
2023/04/05 06:11:19;;;;;;;5.30;2.27;;;;;;;8.98;57.42;96369.34;5031872;28;20247;-82
2023/04/05 06:13:46;;;;;;;6.27;2.57;;;;;;;9.10;57.16;96386.00;5069357;28;20194;-84
2023/04/05 06:16:13;;;;;;;5.57;2.20;;;;;;;9.24;56.38;96388.72;5069740;28;20875;-77
2023/04/05 06:18:40;;;;;;;4.03;1.97;;;;;;;9.47;56.05;96380.63;5069379;28;20190;-76
2023/04/05 06:21:07;;;;;;;5.43;2.47;;;;;;;9.62;54.97;96381.59;5069888;28;20213;-78
2023/04/05 06:23:35;;;;;;;9.37;6.13;;;;;;;9.46;58.43;96385.88;5069656;28;20221;-85
2023/04/05 06:26:02;;;;;;;8.47;2.83;;;;;;;9.47;56.59;96393.56;5069794;28;20190;-83
2023/04/05 06:28:29;;;;;;;7.60;3.33;;;;;;;9.17;58.71;96384.75;5069157;28;20682;-81
2023/04/05 06:30:58;;;;;;;4.57;3.07;;;;;;;8.96;59.04;96398.78;5069287;28;20196;-85
2023/04/05 06:33:25;;;;;;;4.93;3.20;;;;;;;8.83;59.19;96377.03;5069783;28;20269;-83
2023/04/05 06:35:52;;;;;;;3.03;2.43;;;;;;;8.59;60.50;96404.91;5051177;28;20203;-85
2023/04/05 06:38:19;;;;;;;4.10;3.00;;;;;;;8.74;60.49;96403.31;5070026;28;20185;-84
2023/04/05 06:40:46;;;;;;;6.23;4.63;;;;;;;8.96;60.21;96415.06;5068921;28;20189;-80
2023/04/05 06:43:13;;;;;;;6.03;3.27;;;;;;;9.29;59.86;96410.00;5050952;28;20306;-84
2023/04/05 06:45:41;;;;;;;10.40;3.73;;;;;;;9.48;58.66;96402.97;5068646;28;20182;-86
2023/04/05 06:48:08;;;;;;;5.07;2.90;;;;;;;9.61;57.88;96414.34;5068844;28;20185;-82
2023/04/05 06:50:35;;;;;;;4.57;2.97;;;;;;;9.83;56.88;96409.72;5068998;28;20675;-81
2023/04/05 06:53:03;;;;;;;4.50;2.67;;;;;;;9.62;56.98;96413.41;5068719;28;20247;-77
2023/04/05 06:55:31;;;;;;;4.90;3.40;;;;;;;9.65;56.84;96417.59;5051058;28;20223;-78
2023/04/05 06:57:58;;;;;;;4.87;3.47;;;;;;;9.69;57.01;96419.09;5068880;28;20651;-79
2023/04/05 07:00:25;;;;;;;5.07;2.70;;;;;;;9.16;58.50;96421.00;5068882;28;20185;-82
2023/04/05 07:02:52;;;;;;;3.87;2.63;;;;;;;8.62;59.30;96409.06;5069163;28;20194;-83
2023/04/05 07:05:19;;;;;;;4.03;2.60;;;;;;;8.75;58.98;96380.00;5069025;28;20213;-77
2023/04/05 07:07:47;;;;;;;4.23;3.20;;;;;;;9.25;57.78;96426.56;5068658;28;20185;-84
2023/04/05 07:10:14;;;;;;;3.63;2.33;;;;;;;9.48;57.16;96428.00;5050202;28;20197;-80
2023/04/05 07:12:41;;;;;;;6.10;3.50;;;;;;;9.63;56.89;96425.44;5068525;28;20250;-84
2023/04/05 07:15:09;;;;;;;2.93;2.07;;;;;;;9.43;56.50;96423.06;5068350;28;20216;-85
2023/04/05 07:17:36;;;;;;;3.33;2.33;;;;;;;9.53;55.64;96426.84;5050310;28;20194;-83
2023/04/05 07:20:07;;;;;;;2.37;2.00;;;;;;;9.51;56.58;96418.31;5068167;28;20288;-80
2023/04/05 07:22:34;;;;;;;1.57;1.40;;;;;;;9.49;55.50;96425.31;5067474;28;20213;-78
2023/04/05 07:25:01;;;;;;;4.10;1.80;;;;;;;9.37;55.98;96412.19;5050393;28;20209;-78
2023/04/05 07:27:29;;;;;;;3.63;2.60;;;;;;;9.53;56.90;96444.94;5050091;28;20209;-84
2023/04/05 07:29:57;;;;;;;4.27;1.87;;;;;;;9.75;56.34;96437.72;5068546;28;20283;-84
2023/04/05 07:32:24;;;;;;;1.80;1.57;;;;;;;9.79;55.09;96440.97;5082805;28;20287;-83
2023/04/05 07:34:51;;;;;;;2.10;1.47;;;;;;;9.75;55.75;96432.56;5087801;28;20184;-86
2023/04/05 07:37:18;;;;;;;1.93;1.73;;;;;;;9.73;56.67;96433.53;5070769;28;20591;-85
2023/04/05 07:39:45;;;;;;;5.43;2.50;;;;;;;9.67;56.46;96439.88;5067377;28;20297;-82
2023/04/05 07:42:12;;;;;;;2.47;1.83;;;;;;;9.87;55.45;96448.34;5078851;28;20640;-87
2023/04/05 07:44:39;;;;;;;2.40;1.50;;;;;;;9.93;53.84;96440.28;5087332;28;20216;-86
2023/04/05 07:47:06;;;;;;;6.40;2.50;;;;;;;10.08;54.44;96442.88;5079203;28;20197;-84
2023/04/05 07:49:33;;;;;;;2.10;1.90;;;;;;;10.26;54.85;96444.50;5067548;28;20588;-85
2023/04/05 07:52:00;;;;;;;5.80;2.20;;;;;;;10.37;53.42;96454.28;5068912;28;20272;-85
2023/04/05 07:54:30;;;;;;;1.50;1.30;;;;;;;10.10;53.95;96442.81;5070204;28;20216;-84
2023/04/05 07:56:57;;;;;;;2.80;2.10;;;;;;;10.35;54.03;96438.00;5079334;28;20196;-82
2023/04/05 07:59:24;;;;;;;1.93;1.83;;;;;;;10.62;53.62;96452.00;5088096;28;20185;-86
2023/04/05 08:01:51;;;;;;;1.83;1.43;;;;;;;10.33;53.75;96424.31;5088535;28;20727;-86
2023/04/05 08:04:25;;;;;;;2.33;1.50;;;;;;;10.84;52.96;96447.31;5087951;28;20220;-79
2023/04/05 08:06:51;;;;;;;2.70;1.77;;;;;;;10.78;53.01;96452.03;5088162;28;20192;-81
2023/04/05 08:09:18;;;;;;;1.53;1.20;;;;;;;10.57;52.52;96446.28;5087218;28;20192;-82
2023/04/05 08:11:45;;;;;;;1.63;1.53;;;;;;;10.44;53.65;96453.03;5087385;28;20189;-83
2023/04/05 08:14:12;;;;;;;1.77;1.60;;;;;;;10.47;54.36;96442.50;5087187;28;20193;-78
2023/04/05 08:16:39;;;;;;;3.13;2.00;;;;;;;10.52;54.59;96445.69;5070184;28;20201;-76
2023/04/05 08:19:06;;;;;;;1.60;1.47;;;;;;;10.62;53.93;96462.38;5087860;28;20192;-83
2023/04/05 08:21:33;;;;;;;1.37;1.23;;;;;;;10.54;53.00;96461.97;5087425;28;20288;-85
2023/04/05 08:24:01;;;;;;;1.57;1.40;;;;;;;10.62;52.54;96442.50;5087500;28;20228;-84
2023/04/05 08:26:28;;;;;;;1.83;1.67;;;;;;;10.43;52.39;96430.63;5087549;28;20196;-84
2023/04/05 08:28:55;;;;;;;2.13;1.83;;;;;;;10.74;53.08;96461.69;5087420;28;20196;-79
2023/04/05 08:31:23;;;;;;;1.80;1.30;;;;;;;10.71;52.18;96471.41;5087516;28;20193;-83
2023/04/05 08:33:50;;;;;;;1.33;1.23;;;;;;;10.54;53.13;96472.31;5086945;28;20271;-82
2023/04/05 08:36:17;;;;;;;1.33;1.23;;;;;;;10.61;53.49;96468.50;5054967;28;20247;-82
2023/04/05 08:38:44;;;;;;;3.50;3.20;;;;;;;10.86;52.81;96455.00;5073737;28;20507;-74
2023/04/05 08:41:18;;;;;;;4.33;1.60;;;;;;;11.07;52.90;96470.16;5090543;28;20180;-81
2023/04/05 08:43:56;;;;;;;1.63;1.50;;;;;;;10.92;52.21;96475.38;5103818;28;20281;-77
2023/04/05 08:46:24;;;;;;;2.37;1.60;;;;;;;11.02;51.75;96472.19;5086814;28;20725;-78
2023/04/05 08:48:51;;;;;;;1.87;1.60;;;;;;;11.29;52.24;96470.59;5068531;28;20188;-83
2023/04/05 08:51:22;;;;;;;3.20;1.80;;;;;;;11.50;52.31;96472.91;5087155;28;20189;-84
2023/04/05 08:53:49;;;;;;;3.00;1.97;;;;;;;11.57;51.14;96463.81;5067706;28;20250;-79
2023/04/05 08:56:31;;;;;;;5.30;2.30;;;;;;;11.58;51.06;96461.13;5086572;28;20191;-81
2023/04/05 08:59:03;;;;;;;2.13;1.40;;;;;;;11.78;50.12;96462.59;5086453;28;20239;-77
2023/04/05 09:01:31;;;;;;;3.53;2.00;;;;;;;11.68;51.43;96472.69;5086243;28;20654;-77
2023/04/05 09:04:08;;;;;;;3.57;1.60;;;;;;;11.70;51.47;96477.78;5086210;28;20611;-80
2023/04/05 09:06:37;;;;;;;4.57;1.57;;;;;;;11.56;51.84;96480.31;5068108;28;20290;-84
2023/04/05 09:09:06;;;;;;;2.60;2.00;;;;;;;11.68;51.44;96482.22;5086680;28;20193;-82
2023/04/05 09:11:34;;;;;;;4.80;1.90;;;;;;;11.65;51.43;96482.34;5086248;28;20217;-80
2023/04/05 09:14:03;;;;;;;1.80;1.60;;;;;;;11.34;52.49;96484.13;5086443;28;20279;-83
2023/04/05 09:16:40;;;;;;;2.90;1.70;;;;;;;11.46;51.96;96470.47;5086447;28;20204;-81
2023/04/05 09:19:09;;;;;;;1.70;1.43;;;;;;;11.71;51.15;96492.38;5086871;28;20261;-78
2023/04/05 09:21:58;;;;;;;1.83;1.40;;;;;;;11.69;50.94;96489.91;5068330;28;20224;-85
2023/04/05 09:24:40;;;;;;;4.97;1.70;;;;;;;11.65;51.99;96483.19;5086057;28;20227;-80
2023/04/05 09:27:12;;;;;;;3.07;2.27;;;;;;;11.79;51.26;96477.19;5086777;28;20571;-82
2023/04/05 09:29:41;;;;;;;1.60;1.50;;;;;;;11.50;51.43;96488.44;5086181;28;20233;-82
2023/04/05 09:32:10;;;;;;;4.23;2.77;;;;;;;11.54;52.86;96495.13;5068421;28;20291;-78
2023/04/05 09:34:38;;;;;;;2.77;2.10;;;;;;;11.55;52.73;96496.78;5068505;28;20700;-84
2023/04/05 09:37:13;;;;;;;2.57;2.10;;;;;;;11.63;51.82;96489.38;5101609;28;20220;-83
2023/04/05 09:39:40;;;;;;;2.23;2.03;;;;;;;11.41;51.54;96456.94;5086644;28;20629;-84
2023/04/05 09:42:13;;;;;;;2.57;1.97;;;;;;;11.72;51.05;96491.47;5085854;28;20185;-79
2023/04/05 09:44:54;;;;;;;3.73;2.43;;;;;;;11.82;50.91;96496.03;5084223;28;20217;-82
2023/04/05 09:47:29;;;;;;;1.90;1.80;;;;;;;11.73;51.62;96485.34;5090263;28;20275;-78
2023/04/05 09:50:05;;;;;;;2.63;2.30;;;;;;;11.76;51.53;96473.06;5072297;28;20693;-81
2023/04/05 09:52:32;;;;;;;4.17;2.00;;;;;;;12.13;50.70;96484.66;5090747;28;20242;-77
2023/04/05 09:55:01;;;;;;;4.60;2.10;;;;;;;12.27;49.77;96476.84;5090145;28;20296;-79
2023/04/05 09:57:33;;;;;;;2.10;1.40;;;;;;;11.91;49.43;96479.09;5089971;28;20673;-82
2023/04/05 10:00:00;;;;;;;1.60;1.40;;;;;;;11.65;49.79;96483.19;5090039;28;20182;-83
2023/04/05 10:02:38;;;;;;;2.70;1.70;;;;;;;11.80;50.50;96486.69;5090018;28;20189;-82
2023/04/05 10:05:12;;;;;;;3.63;1.90;;;;;;;12.03;50.22;96484.38;5071891;28;20315;-83
2023/04/05 10:07:42;;;;;;;2.57;1.97;;;;;;;11.73;51.78;96475.81;5071910;28;20193;-82
2023/04/05 10:10:11;;;;;;;3.30;2.00;;;;;;;11.74;51.47;96477.50;5089994;28;20182;-80
2023/04/05 10:12:40;;;;;;;4.37;2.07;;;;;;;11.69;50.00;96469.16;5089659;28;20210;-84
2023/04/05 10:15:09;;;;;;;2.13;1.80;;;;;;;12.10;51.24;96485.66;5071853;28;20189;-88
2023/04/05 10:17:38;;;;;;;4.50;2.50;;;;;;;12.12;51.44;96486.41;5038301;28;20188;-78
2023/04/05 10:20:24;;;;;;;2.90;1.70;;;;;;;12.08;50.71;96491.88;5071415;28;20196;-83
2023/04/05 10:22:51;;;;;;;2.10;1.80;;;;;;;11.84;51.35;96490.75;5089830;28;20200;-85
2023/04/05 10:25:47;;;;;;;3.03;2.30;;;;;;;11.88;52.08;96455.91;5089816;28;20227;-79
2023/04/05 10:28:26;;;;;;;2.23;2.03;;;;;;;12.18;51.03;96486.03;5091394;28;20196;-80
2023/04/05 10:31:14;;;;;;;2.37;2.03;;;;;;;12.14;51.01;96487.16;5090048;28;20187;-78
2023/04/05 10:34:02;;;;;;;2.33;1.83;;;;;;;11.97;51.26;96492.50;5089529;28;20731;-80
2023/04/05 10:36:30;;;;;;;4.50;2.60;;;;;;;11.78;51.37;96486.78;5071716;28;20188;-82
2023/04/05 10:38:57;;;;;;;1.50;1.40;;;;;;;11.37;51.99;96488.31;5090008;28;20568;-83
2023/04/05 10:41:28;;;;;;;2.70;1.90;;;;;;;11.13;53.53;96490.53;5071342;28;20193;-78
2023/04/05 10:43:56;;;;;;;3.50;2.60;;;;;;;11.52;52.89;96491.78;5089503;28;20222;-82
2023/04/05 10:46:23;;;;;;;7.53;3.23;;;;;;;11.66;52.54;96473.66;5089636;28;20189;-77
2023/04/05 10:49:02;;;;;;;2.00;1.80;;;;;;;11.79;51.87;96472.84;5089810;28;20469;-82
2023/04/05 10:51:30;;;;;;;2.37;2.17;;;;;;;11.89;51.26;96489.53;5089333;28;20201;-83
2023/04/05 10:53:58;;;;;;;2.27;2.07;;;;;;;11.96;51.74;96488.25;5090171;28;20192;-80
2023/04/05 10:56:26;;;;;;;3.57;2.60;;;;;;;11.87;51.51;96490.59;5071238;28;20621;-80
2023/04/05 10:58:55;;;;;;;3.23;2.13;;;;;;;11.91;50.79;96494.66;5088587;28;20194;-78
2023/04/05 11:01:22;;;;;;;2.20;2.00;;;;;;;11.77;52.17;96492.03;5089378;28;20196;-80
2023/04/05 11:03:51;;;;;;;2.17;1.80;;;;;;;11.35;53.28;96493.56;5088919;28;20194;-82
2023/04/05 11:06:22;;;;;;;3.10;2.80;;;;;;;11.21;54.34;96487.53;5089341;28;20602;-81
2023/04/05 11:08:58;;;;;;;4.03;2.47;;;;;;;11.26;54.36;96499.31;5089027;28;20191;-81
2023/04/05 11:11:26;;;;;;;2.70;2.30;;;;;;;11.20;53.75;96506.59;5088744;28;20245;-80
2023/04/05 11:13:55;;;;;;;2.60;2.10;;;;;;;11.48;54.57;96504.91;5088561;28;20268;-82
2023/04/05 11:16:36;;;;;;;22.20;5.90;;;;;;;11.46;56.31;96499.00;5088500;28;20192;-79
2023/04/05 11:19:03;;;;;;;4.50;4.10;;;;;;;11.36;57.41;96494.41;5088813;28;20226;-80
2023/04/05 11:21:30;;;;;;;4.07;3.67;;;;;;;10.92;58.96;96504.69;5088397;28;20246;-76
2023/04/05 11:24:00;;;;;;;4.60;3.43;;;;;;;10.74;59.84;96512.69;5088456;28;20212;-79
2023/04/05 11:26:32;;;;;;;4.90;4.20;;;;;;;10.34;60.80;96504.47;5070327;28;20270;-79
2023/04/05 11:28:59;;;;;;;3.43;2.90;;;;;;;10.08;61.27;96507.53;5088281;28;20194;-75
2023/04/05 11:31:26;;;;;;;4.77;3.00;;;;;;;10.02;62.30;96507.88;5087722;28;20284;-82
2023/04/05 11:33:57;;;;;;;2.70;2.47;;;;;;;9.53;62.94;96509.53;5070119;28;20606;-80
2023/04/05 11:36:47;;;;;;;4.53;3.87;;;;;;;9.75;63.32;96498.94;5053429;28;20229;-82
2023/04/05 11:39:17;;;;;;;5.77;3.27;;;;;;;9.87;62.83;96519.00;5087985;28;20185;-79
2023/04/05 11:42:08;;;;;;;14.07;6.27;;;;;;;9.88;63.22;96514.66;5069443;28;20192;-78
2023/04/05 11:44:41;;;;;;;3.80;2.70;;;;;;;9.54;64.81;96511.19;5088140;28;20216;-79
2023/04/05 11:47:10;;;;;;;3.83;2.60;;;;;;;9.55;64.31;96505.13;5088283;28;20192;-83
2023/04/05 11:49:38;;;;;;;4.30;2.70;;;;;;;9.54;64.29;96490.53;5088603;28;20200;-82
2023/04/05 11:52:16;;;;;;;4.13;2.97;;;;;;;9.65;63.54;96506.34;5070165;28;20282;-84
2023/04/05 11:54:47;;;;;;;10.60;3.47;;;;;;;9.66;63.90;96512.34;5069754;28;20663;-77
2023/04/05 11:57:22;;;;;;;3.30;2.53;;;;;;;9.58;63.71;96502.38;5087653;28;20705;-81